createdAt,value
2023-03-08T00:05:05.079Z,100.00
2023-03-08T00:10:10.402Z,100.00
2023-03-08T00:15:14.876Z,100.00
2023-03-08T00:20:20.181Z,100.00
2023-03-08T00:25:24.127Z,100.00
2023-03-08T00:30:29.429Z,100.00
2023-03-08T00:35:34.875Z,100.00
2023-03-08T00:40:38.769Z,100.00
2023-03-08T00:45:42.588Z,100.00
2023-03-08T00:50:47.813Z,100.00
2023-03-08T00:55:53.113Z,100.00
2023-03-08T01:00:57.397Z,100.00
2023-03-08T01:06:07.898Z,100.00
2023-03-08T01:11:17.288Z,100.00
2023-03-08T01:16:24.200Z,100.00
2023-03-08T01:21:30.712Z,100.00
2023-03-08T01:26:34.609Z,100.00
2023-03-08T01:31:38.438Z,100.00
2023-03-08T01:36:44.043Z,100.00
2023-03-08T01:41:47.944Z,100.00
2023-03-08T01:46:52.353Z,100.00
2023-03-08T01:52:03.033Z,100.00
2023-03-08T01:57:11.768Z,100.00
2023-03-08T02:02:17.211Z,100.00
2023-03-08T02:07:22.509Z,100.00
2023-03-08T02:12:27.868Z,100.00
2023-03-08T02:17:33.890Z,100.00
2023-03-08T02:22:41.450Z,100.00
2023-03-08T02:27:45.846Z,100.00
2023-03-08T02:32:50.062Z,100.00
2023-03-08T02:37:55.538Z,100.00
2023-03-08T02:42:59.422Z,100.00
2023-03-08T02:48:03.995Z,100.00
2023-03-08T02:53:09.846Z,100.00
2023-03-08T02:58:13.992Z,100.00
2023-03-08T03:03:18.612Z,100.00
2023-03-08T03:08:23.878Z,100.00
2023-03-08T03:13:32.079Z,100.00
2023-03-08T03:18:36.879Z,100.00
2023-03-08T03:23:42.820Z,100.00
2023-03-08T03:28:52.252Z,100.00
2023-03-08T03:33:56.316Z,100.00
2023-03-08T03:39:04.977Z,100.00
2023-03-08T03:44:11.538Z,100.00
2023-03-08T03:49:16.555Z,100.00
2023-03-08T03:54:24.114Z,100.00
2023-03-08T03:59:28.425Z,100.00
2023-03-08T04:04:33.024Z,100.00
2023-03-08T04:09:39.129Z,100.00
2023-03-08T04:14:47.580Z,100.00
2023-03-08T04:19:53.244Z,100.00
2023-03-08T04:25:00.402Z,100.00
2023-03-08T04:30:14.502Z,100.00
2023-03-08T04:35:19.340Z,100.00
2023-03-08T04:40:29.861Z,100.00
2023-03-08T04:45:36.384Z,100.00
2023-03-08T04:50:45.569Z,100.00
2023-03-08T04:55:51.753Z,100.00
2023-03-08T05:00:55.886Z,100.00
2023-03-08T05:06:00.850Z,100.00
2023-03-08T05:11:06.924Z,100.00
2023-03-08T05:16:13.684Z,100.00
2023-03-08T05:21:19.724Z,100.00
2023-03-08T05:26:30.066Z,100.00
2023-03-08T05:31:36.743Z,100.00
2023-03-08T05:36:43.738Z,100.00
2023-03-08T05:41:50.130Z,100.00
2023-03-08T05:47:00.405Z,100.00
2023-03-08T05:52:05.436Z,100.00
2023-03-08T05:57:11.148Z,100.00
2023-03-08T06:02:15.590Z,100.00
2023-03-08T06:07:23.997Z,100.00
2023-03-08T06:12:44.803Z,100.00
2023-03-08T06:17:53.551Z,100.00
2023-03-08T06:23:00.381Z,100.00
2023-03-08T06:28:06.528Z,100.00
2023-03-08T06:33:15.173Z,100.00
2023-03-08T06:38:21.961Z,100.00
2023-03-08T06:43:27.805Z,100.00
2023-03-08T06:48:31.909Z,100.00
2023-03-08T06:53:38.214Z,100.00
2023-03-08T06:58:45.036Z,100.00
2023-03-08T07:03:50.199Z,100.00
2023-03-08T07:08:54.267Z,100.00
2023-03-08T07:14:00.308Z,100.00
2023-03-08T07:19:04.566Z,100.00
2023-03-08T07:24:08.815Z,100.00
2023-03-08T07:29:14.243Z,100.00
2023-03-08T07:34:18.152Z,100.00
2023-03-08T07:39:23.216Z,100.00
2023-03-08T07:44:28.716Z,100.00
2023-03-08T07:49:32.586Z,100.00
2023-03-08T07:54:36.466Z,100.00
2023-03-08T07:59:42.005Z,100.00
2023-03-08T08:04:45.938Z,100.00
2023-03-08T08:09:49.950Z,100.00
2023-03-08T08:14:55.202Z,100.00
2023-03-08T08:19:59.584Z,100.00
2023-03-08T08:25:05.742Z,100.00
2023-03-08T08:30:14.962Z,100.00
2023-03-08T08:35:19.057Z,100.00
2023-03-08T08:40:23.085Z,100.00
2023-03-08T08:45:28.827Z,100.00
2023-03-08T08:50:33.222Z,100.00
2023-03-08T08:55:39.377Z,100.00
2023-03-08T09:00:47.471Z,100.00
2023-03-08T09:05:51.313Z,100.00
2023-03-08T09:10:55.151Z,100.00
2023-03-08T09:16:00.608Z,100.00
2023-03-08T09:21:04.892Z,100.00
2023-03-08T09:26:09.345Z,100.00
2023-03-08T09:31:17.879Z,100.00
2023-03-08T09:36:22.449Z,100.00
2023-03-08T09:41:45.438Z,100.00
2023-03-08T09:46:54.457Z,100.00
2023-03-08T09:52:04.366Z,100.00
2023-03-08T09:57:14.141Z,100.00
2023-03-08T10:02:27.221Z,100.00
2023-03-08T10:07:37.460Z,100.00
2023-03-08T10:12:52.514Z,100.00
2023-03-08T10:18:02.822Z,100.00
2023-03-08T10:23:13.996Z,100.00
2023-03-08T10:28:20.350Z,100.00
2023-03-08T10:33:27.834Z,100.00
2023-03-08T10:38:34.183Z,100.00
2023-03-08T10:43:42.409Z,98.63
2023-03-08T10:48:48.238Z,95.71
2023-03-08T10:53:56.214Z,98.96
2023-03-08T10:59:00.420Z,99.17
2023-03-08T11:04:07.400Z,97.37
2023-03-08T11:09:22.828Z,100.00
2023-03-08T11:14:27.687Z,100.00
2023-03-08T11:19:54.198Z,100.00
2023-03-08T11:25:19.232Z,100.00
2023-03-08T11:30:33.846Z,100.00
2023-03-08T11:35:46.412Z,100.00
2023-03-08T11:40:56.380Z,100.00
2023-03-08T11:46:07.859Z,100.00
2023-03-08T11:51:19.807Z,100.00
2023-03-08T11:56:40.857Z,100.00
2023-03-08T12:01:48.995Z,100.00
2023-03-08T12:06:56.481Z,96.19
2023-03-08T12:12:04.653Z,94.02
2023-03-08T12:17:14.602Z,93.34
2023-03-08T12:22:33.566Z,96.23
2023-03-08T12:27:43.830Z,96.98
2023-03-08T12:32:49.398Z,94.05
2023-03-08T12:37:59.138Z,96.35
2023-03-08T12:43:12.410Z,92.80
2023-03-08T12:48:26.109Z,89.79
2023-03-08T12:53:44.451Z,90.90
2023-03-08T12:58:53.207Z,87.01
2023-03-08T13:03:57.670Z,89.14
2023-03-08T13:09:14.375Z,86.99
2023-03-08T13:14:27.376Z,86.76
2023-03-08T13:19:31.997Z,89.78
2023-03-08T13:24:44.050Z,87.65
2023-03-08T13:29:48.284Z,88.70
2023-03-08T13:35:00.277Z,87.90
2023-03-08T13:40:16.464Z,91.95
2023-03-08T13:45:20.576Z,93.86
2023-03-08T13:50:28.935Z,92.45
2023-03-08T13:55:36.601Z,96.12
2023-03-08T14:00:41.108Z,100.00
2023-03-08T14:05:45.832Z,96.61
2023-03-08T14:10:53.051Z,98.74
2023-03-08T14:15:58.769Z,99.86
2023-03-08T14:21:05.791Z,100.00
2023-03-08T14:26:34.220Z,100.00
2023-03-08T14:31:39.335Z,100.00
2023-03-08T14:36:49.520Z,100.00
2023-03-08T14:41:55.742Z,100.00
2023-03-08T14:47:09.319Z,100.00
2023-03-08T14:52:21.314Z,100.00
2023-03-08T14:57:28.317Z,100.00
2023-03-08T15:02:32.394Z,100.00
2023-03-08T15:07:37.907Z,100.00
2023-03-08T15:12:43.640Z,100.00
2023-03-08T15:17:48.260Z,100.00
2023-03-08T15:22:54.360Z,100.00
2023-03-08T15:27:59.759Z,100.00
2023-03-08T15:33:03.865Z,100.00
2023-03-08T15:38:08.189Z,100.00
2023-03-08T15:43:13.634Z,100.00
2023-03-08T15:48:19.197Z,100.00
2023-03-08T15:53:34.956Z,100.00
2023-03-08T15:58:41.846Z,100.00
2023-03-08T16:03:46.089Z,100.00
2023-03-08T16:08:50.381Z,100.00
2023-03-08T16:13:55.751Z,100.00
2023-03-08T16:18:59.649Z,100.00
2023-03-08T16:24:03.882Z,100.00
2023-03-08T16:29:09.223Z,100.00
2023-03-08T16:34:13.299Z,100.00
2023-03-08T16:39:17.439Z,100.00
2023-03-08T16:44:25.399Z,100.00
2023-03-08T16:49:29.273Z,100.00
2023-03-08T16:54:33.307Z,100.00
2023-03-08T16:59:40.579Z,100.00
2023-03-08T17:04:45.047Z,100.00
2023-03-08T17:09:50.639Z,100.00
2023-03-08T17:14:56.147Z,100.00
2023-03-08T17:20:00.957Z,100.00
2023-03-08T17:25:05.963Z,100.00
2023-03-08T17:30:15.816Z,100.00
2023-03-08T17:35:19.868Z,100.00
2023-03-08T17:40:24.394Z,100.00
2023-03-08T17:45:30.357Z,100.00
2023-03-08T17:50:35.050Z,100.00
2023-03-08T17:55:41.489Z,100.00
2023-03-08T18:00:47.036Z,100.00
2023-03-08T18:05:52.816Z,100.00
2023-03-08T18:10:56.877Z,100.00
2023-03-08T18:16:03.548Z,100.00
2023-03-08T18:21:13.777Z,100.00
2023-03-08T18:26:19.022Z,100.00
2023-03-08T18:31:26.225Z,100.00
2023-03-08T18:36:31.020Z,100.00
2023-03-08T18:41:35.548Z,100.00
2023-03-08T18:46:41.109Z,100.00
2023-03-08T18:51:45.496Z,100.00
2023-03-08T18:56:53.816Z,100.00
2023-03-08T19:01:59.118Z,100.00
2023-03-08T19:07:03.561Z,100.00
2023-03-08T19:12:07.770Z,100.00
2023-03-08T19:17:15.019Z,100.00
2023-03-08T19:22:20.522Z,100.00
2023-03-08T19:27:24.598Z,100.00
2023-03-08T19:32:30.135Z,100.00
2023-03-08T19:37:34.444Z,100.00
2023-03-08T19:42:38.908Z,100.00
2023-03-08T19:47:44.130Z,100.00
2023-03-08T19:52:48.028Z,100.00
2023-03-08T19:57:52.259Z,100.00
2023-03-08T20:02:59.519Z,100.00
2023-03-08T20:08:03.839Z,100.00
2023-03-08T20:13:08.012Z,100.00
2023-03-08T20:18:13.645Z,100.00
2023-03-08T20:23:18.110Z,100.00
2023-03-08T20:28:22.008Z,100.00
2023-03-08T20:33:27.349Z,100.00
2023-03-08T20:38:31.315Z,100.00
2023-03-08T20:43:35.277Z,100.00
2023-03-08T20:48:42.658Z,100.00
2023-03-08T20:53:49.378Z,100.00
2023-03-08T20:58:55.240Z,100.00
2023-03-08T21:04:00.986Z,100.00
2023-03-08T21:09:06.217Z,100.00
2023-03-08T21:14:10.941Z,100.00
2023-03-08T21:19:16.870Z,100.00
2023-03-08T21:24:23.010Z,100.00
2023-03-08T21:29:28.258Z,100.00
2023-03-08T21:34:33.861Z,100.00
2023-03-08T21:39:37.993Z,100.00
2023-03-08T21:44:42.581Z,100.00
2023-03-08T21:49:48.247Z,100.00
2023-03-08T21:54:52.580Z,100.00
2023-03-08T21:59:56.479Z,100.00
2023-03-08T22:05:04.228Z,100.00
2023-03-08T22:10:10.068Z,100.00
2023-03-08T22:15:15.960Z,100.00
2023-03-08T22:20:23.035Z,100.00
2023-03-08T22:25:26.874Z,100.00
2023-03-08T22:30:31.117Z,100.00
2023-03-08T22:35:36.949Z,100.00
2023-03-08T22:40:41.884Z,100.00
2023-03-08T22:45:46.305Z,100.00
2023-03-08T22:51:04.712Z,100.00
2023-03-08T22:56:25.892Z,100.00
2023-03-08T23:01:32.668Z,100.00
2023-03-08T23:06:38.097Z,100.00
2023-03-08T23:11:43.020Z,100.00
2023-03-08T23:16:47.529Z,100.00
2023-03-08T23:21:53.204Z,100.00
2023-03-08T23:27:01.795Z,100.00
2023-03-08T23:32:06.703Z,100.00
2023-03-08T23:37:12.072Z,100.00
2023-03-08T23:42:16.496Z,100.00
2023-03-08T23:47:21.369Z,100.00
2023-03-08T23:52:27.215Z,100.00
2023-03-08T23:57:31.299Z,100.00
